Welcome to our Virtual Airline
Sign-in:

Flight MFC97101

  • Submitted By: James Smith
  • Departure Airport: Barnes Lake Cabin (BQD)
  • Arrival Airport: Point Baker SPB (KPB)
  • Aircraft: CC19 XCUB (XCUBM)
  • Flight Time: 00.37.21
  • Date Submitted: 22/04/01
  • Route: STOP SLMN, RBUC
  • Status: Accepted
Flight Details
Gross Revenue:
(250 load / $ 33.00 per unit
$ 8, 250.00
Fuel Cost:
(11.3398 fuel used @ 5.1 / unit)
$ 57.83

Additional Log Information:

View Log

[14:50] ----- Flight Opened -----
[14:50] Cigar Box - 1.1.4.0
[14:50] FS:
[14:50] FSUIPC: v7.213
[14:50] Flight Number: MFC97101
[14:50] FS Aircraft: Asobo XCub Floats
[14:50] FS Model: TT:ATCCOM.AC_MODEL_CC19
[14:50] FS Type: TT:ATCCOM.ATC_NAME_CUBC
[14:50] Departure: BQD
[14:50] Arrival: KPB
[14:50] Flight Level: 2500
[14:50] Flight Type: H
[14:50] Passengers: 0
[14:50] FOB: 138 lbs
[14:50] Gate: n/a
[14:50] NOTE: Parking Brake Ignored
[14:50] Crash Detection: Disabled
[14:50] Crash Detection Aircraft: Disabled
[14:50] Engines: 1 Piston
[14:50] NOTE: Boarding has started
[14:51] Landing Gear: Retracted
[14:51] Flaps: Position 1
[14:51] Light Data: Navigation ON
[14:51] Light Data: Beacon ON
[14:51] Light Data: Wing lights ON
[14:51] Main Door Closed
[14:51] COM1: 122.90
[14:51] COM2: 124.85
[14:51] Transponder: 7000
[14:51] NAV1: 110.50
[14:51] NAV2: 110.50
[14:51] ADF1: 890.0
[14:51] ADF2: 890.0
[14:51] Navigation Mode: GPS
[14:51] Navigation Mode: GPS
[14:51] Engine 1: Started
[14:51] NOTE: Taxi started
[14:51] NOTE: ----- TAKE OFF -----
[14:51] GS: 31 knots
[14:51] TAS: 31 knots
[14:51] IAS: 19 knots
[14:51] VS: -5 fpm
[14:51] FOB: 138 lbs
[14:51] Heading: 177°
[14:51] Pitch: 3°
[14:51] Bank: 0°
[14:51] Aircraft Weight: 2066.61 lbs
[14:51] Nearest Airport: BARL
[14:51] Distance: 0.39 miles
[14:51] Runway: ???
[14:51] Ground Surface: Water
[14:51] Ground Condition: Normal
[14:51] NOTE: Weather Report
[14:51] Wind Heading: 251°
[14:51] Wind Speed: 2 knots
[14:51] OAT: 15° C
[14:51] TAT: 15° C
[14:51] Precipitation: None
[14:51] Dew Point: 0° C
[14:51] Visibility: 85 miles
[14:51] METAR:
[14:51] NOTE: Climb started
[14:52] View Mode: Virtual Cockpit
[14:55] NOTE: TOC reached
[14:55] NOTE: Cruise started
[14:55] GS: 91 knots
[14:55] TAS: 94 knots
[14:55] IAS: 88 knots
[14:55] VS: 181 fpm
[14:55] FOB: 134 lbs
[14:55] Heading: 307°
[14:55] Pitch: 2°
[14:55] Bank: 0°
[14:55] Aircraft Weight: 2062.51 lbs
[14:59] NOTE: TOD reached
[14:59] NOTE: Descent started
[14:59] GS: 104 knots
[14:59] TAS: 107 knots
[14:59] IAS: 101 knots
[14:59] VS: -408 fpm
[14:59] FOB: 131 lbs
[14:59] Heading: 316°
[14:59] Pitch: 1°
[14:59] Bank: 1°
[14:59] Aircraft Weight: 2059.87 lbs
[14:59] NOTE: On approach
[15:05] Flaps: Position 2
[15:05] GS: 64 knots
[15:05] TAS: 65 knots
[15:05] IAS: 58 knots
[15:05] VS: 197 fpm
[15:05] Flaps: Position 3
[15:05] GS: 64 knots
[15:05] TAS: 62 knots
[15:05] IAS: 54 knots
[15:05] VS: -160 fpm
[15:05] Stall: Encountered
[15:05] GS: 62 knots
[15:05] TAS: 58 knots
[15:05] IAS: 51 knots
[15:05] VS: -373 fpm
[15:05] Stall: Corrected
[15:05] GS: 54 knots
[15:05] TAS: 53 knots
[15:05] IAS: 45 knots
[15:05] VS: -301 fpm
[15:05] Stall: Encountered
[15:05] GS: 54 knots
[15:05] TAS: 53 knots
[15:05] IAS: 44 knots
[15:05] VS: -481 fpm
[15:05] Stall: Corrected
[15:05] GS: 50 knots
[15:05] TAS: 51 knots
[15:05] IAS: 42 knots
[15:05] VS: -427 fpm
[15:05] Stall: Encountered
[15:05] GS: 50 knots
[15:05] TAS: 51 knots
[15:05] IAS: 42 knots
[15:05] VS: -470 fpm
[15:05] Stall: Corrected
[15:05] GS: 48 knots
[15:05] TAS: 49 knots
[15:05] IAS: 40 knots
[15:05] VS: -61 fpm
[15:05] Stall: Encountered
[15:05] GS: 46 knots
[15:05] TAS: 47 knots
[15:05] IAS: 38 knots
[15:05] VS: -77 fpm
[15:05] NOTE: ----- LANDED -----
[15:05] Landing Rate: -79.20 fpm
[15:05] GS: 46 knots
[15:05] TAS: 47 knots
[15:05] IAS: 38 knots
[15:05] VS: -67 fpm
[15:05] FOB: 127 lbs
[15:05] Heading: 330°
[15:05] Pitch: 8°
[15:05] Bank: 0°
[15:05] Aircraft Weight: 2055.60 lbs
[15:05] Nearest Airport: SLMN
[15:05] Distance: 0.24 miles
[15:05] Runway: ???
[15:05] Ground Surface: Water
[15:05] Ground Condition: Normal
[15:05] NOTE: Weather Report
[15:05] Wind Heading: 251°
[15:05] Wind Speed: 2 knots
[15:05] OAT: 14° C
[15:05] TAT: 15° C
[15:05] Precipitation: None
[15:05] Dew Point: 0° C
[15:05] Visibility: 85 miles
[15:05] METAR: KPBI 011353Z 21011KT 10SM SCT021 SCT028 SCT250 28/22 A3001 RMK AO2 SLP162 T02780222 KPBG 011353Z AUTO 25004KT 10SM FEW028 BKN034 OVC042 08/02 A2949 RMK AO2 SLP989 T00780017 KPBX 011330Z AUTO 25008KT 170V280 10SM OVC018 03/00 A2994 RMK AO2 T00301005 KPBF 011353Z AUTO 01006KT 10SM CLR 08/02 A3014 RMK AO2 SLP205 T00780017 KPBH 011355Z AUTO 00000KT 10SM CLR M03/M06 A2994 RMK AO2 T10331059
[15:05] View Mode: Virtual Cockpit
[15:05] NOTE: Taxi started
[15:06] Engine 1: Stopped
[15:06] Flaps: Position 2
[15:06] Flaps: Position 1
[15:07] Slew Mode: Activated
[15:07] Slew Mode: Deactivated
[15:07] Engine 1: Started
[15:08] Slew Mode: Activated
[15:08] Slew Mode: Deactivated
[15:09] View Mode: Virtual Cockpit
[15:10] Flaps: Position 0
[15:10] GS: 71 knots
[15:10] TAS: 72 knots
[15:10] IAS: 65 knots
[15:10] VS: 316 fpm
[15:12] Flaps: Position 1
[15:12] GS: 91 knots
[15:12] TAS: 96 knots
[15:12] IAS: 89 knots
[15:12] VS: -264 fpm
[15:13] Flaps: Position 2
[15:13] GS: 79 knots
[15:13] TAS: 83 knots
[15:13] IAS: 77 knots
[15:13] VS: -74 fpm
[15:13] Flaps: Position 3
[15:13] GS: 81 knots
[15:13] TAS: 86 knots
[15:13] IAS: 81 knots
[15:13] VS: -1218 fpm
[15:14] NOTE: ----- LANDED -----
[15:14] Landing Rate: -224.53 fpm
[15:14] GS: 50 knots
[15:14] TAS: 51 knots
[15:14] IAS: 43 knots
[15:14] VS: -198 fpm
[15:14] FOB: 123 lbs
[15:14] Heading: 161°
[15:14] Pitch: 2°
[15:14] Bank: -1°
[15:14] Aircraft Weight: 2051.47 lbs
[15:14] Nearest Airport: RBLC
[15:14] Distance: 0.42 miles
[15:14] Runway: ???
[15:14] Ground Surface: Water
[15:14] Ground Condition: Normal
[15:14] NOTE: Weather Report
[15:14] Wind Heading: 253°
[15:14] Wind Speed: 2 knots
[15:14] OAT: 14° C
[15:14] TAT: 15° C
[15:14] Precipitation: None
[15:14] Dew Point: 0° C
[15:14] Visibility: 85 miles
[15:14] METAR: KPBI 011353Z 21011KT 10SM SCT021 SCT028 SCT250 28/22 A3001 RMK AO2 SLP162 T02780222 KPBG 011353Z AUTO 25004KT 10SM FEW028 BKN034 OVC042 08/02 A2949 RMK AO2 SLP989 T00780017 KPBX 011330Z AUTO 25008KT 170V280 10SM OVC018 03/00 A2994 RMK AO2 T00301005 KPBF 011353Z AUTO 01006KT 10SM CLR 08/02 A3014 RMK AO2 SLP205 T00780017 KPBH 011355Z AUTO 00000KT 10SM CLR M03/M06 A2994 RMK AO2 T10331059
[15:14] View Mode: Virtual Cockpit
[15:15] Flaps: Position 2
[15:16] Engine 1: Stopped
[15:17] Engine 1: Started
[15:17] Flaps: Position 1
[15:17] GS: 27 knots
[15:17] TAS: 28 knots
[15:17] IAS: 16 knots
[15:17] VS: -1 fpm
[15:18] View Mode: Virtual Cockpit
[15:18] Stall: Encountered
[15:18] GS: 52 knots
[15:18] TAS: 56 knots
[15:18] IAS: 47 knots
[15:18] VS: 252 fpm
[15:18] Stall: Corrected
[15:18] GS: 52 knots
[15:18] TAS: 56 knots
[15:18] IAS: 47 knots
[15:18] VS: 455 fpm
[15:18] Stall: Encountered
[15:18] GS: 50 knots
[15:18] TAS: 52 knots
[15:18] IAS: 43 knots
[15:18] VS: 237 fpm
[15:18] Stall: Corrected
[15:18] GS: 44 knots
[15:18] TAS: 48 knots
[15:18] IAS: 38 knots
[15:18] VS: 415 fpm
[15:19] Flaps: Position 0
[15:19] GS: 50 knots
[15:19] TAS: 53 knots
[15:19] IAS: 43 knots
[15:19] VS: -205 fpm
[15:27] Flaps: Position 1
[15:27] GS: 87 knots
[15:27] TAS: 91 knots
[15:27] IAS: 87 knots
[15:27] VS: -804 fpm
[15:28] Flaps: Position 2
[15:28] GS: 87 knots
[15:28] TAS: 88 knots
[15:28] IAS: 83 knots
[15:28] VS: -1362 fpm
[15:28] Flaps: Position 3
[15:28] GS: 85 knots
[15:28] TAS: 85 knots
[15:28] IAS: 81 knots
[15:28] VS: -1147 fpm
[15:28] NOTE: ----- LANDED -----
[15:28] Landing Rate: -204.54 fpm
[15:28] GS: 50 knots
[15:28] TAS: 51 knots
[15:28] IAS: 43 knots
[15:28] VS: -164 fpm
[15:28] FOB: 113 lbs
[15:28] Heading: 6°
[15:28] Pitch: 1°
[15:28] Bank: 1°
[15:28] Aircraft Weight: 2041.90 lbs
[15:28] Nearest Airport: KPB1
[15:28] Distance: 0.40 miles
[15:28] Runway: ???
[15:28] Ground Surface: Water
[15:28] Ground Condition: Normal
[15:28] NOTE: Weather Report
[15:28] Wind Heading: 252°
[15:28] Wind Speed: 2 knots
[15:28] OAT: 15° C
[15:28] TAT: 15° C
[15:28] Precipitation: None
[15:28] Dew Point: 0° C
[15:28] Visibility: 85 miles
[15:28] METAR: KPBI 011353Z 21011KT 10SM SCT021 SCT028 SCT250 28/22 A3001 RMK AO2 SLP162 T02780222 KPBG 011353Z AUTO 25004KT 10SM FEW028 BKN034 OVC042 08/02 A2949 RMK AO2 SLP989 T00780017 KPBX 011330Z AUTO 25008KT 170V280 10SM OVC018 03/00 A2994 RMK AO2 T00301005 KPBF 011353Z AUTO 01006KT 10SM CLR 08/02 A3014 RMK AO2 SLP205 T00780017 KPBH 011355Z AUTO 00000KT 10SM CLR M03/M06 A2994 RMK AO2 T10331059
[15:28] View Mode: Virtual Cockpit
[15:28] Flaps: Position 1
[15:28] Flaps: Position 0
[15:31] Engine 1: Stopped
[15:31] Gate: n/a
[15:31] NOTE: Flight Completed
[15:31] FS Aircraft: Asobo XCub Floats
[15:31] FS Model: TT:ATCCOM.AC_MODEL_CC19
[15:31] FS Type: TT:ATCCOM.ATC_NAME_CUBC
[15:31] FOB: 113 lbs
[15:31] Fuel Used: 25 lbs
[15:31] Flight Time: 00:37:21
[15:31] Flight Time (Dawn): 00:00:00
[15:31] Flight Time (Day): 00:37:21
[15:31] Flight Time (Dusk): 00:00:00
[15:31] Flight Time (Night): 00:00:00
[15:31] Total Landings: 3
[15:31] MaxSim Rate: 1x
[15:31] Cigar Box - 1.1.4.0
[15:31] ----- Flight Closed -----

Route Map